sensor_id;sensor_type;location;lat;lon;timestamp;pressure;altitude;pressure_sealevel;temperature;humidity
73681;BME280;61979;53.536;8.082;2022-07-24T00:00:44;102129.78;;;15.04;83.76
73681;BME280;61979;53.536;8.082;2022-07-24T00:01:45;102133.19;;;15.03;83.02
73681;BME280;61979;53.536;8.082;2022-07-24T00:02:45;102128.06;;;15.06;82.52
73681;BME280;61979;53.536;8.082;2022-07-24T00:03:46;102126.31;;;15.07;82.60
73681;BME280;61979;53.536;8.082;2022-07-24T00:04:46;102122.00;;;15.12;82.26
73681;BME280;61979;53.536;8.082;2022-07-24T00:05:47;102124.53;;;15.15;82.31
73681;BME280;61979;53.536;8.082;2022-07-24T00:06:47;102126.22;;;15.17;82.35
73681;BME280;61979;53.536;8.082;2022-07-24T00:07:47;102129.59;;;15.19;82.58
73681;BME280;61979;53.536;8.082;2022-07-24T00:08:48;102122.81;;;15.15;82.09
73681;BME280;61979;53.536;8.082;2022-07-24T00:09:49;102124.56;;;15.13;81.87
73681;BME280;61979;53.536;8.082;2022-07-24T00:10:49;102126.25;;;15.11;83.15
73681;BME280;61979;53.536;8.082;2022-07-24T00:11:50;102127.19;;;15.06;83.40
73681;BME280;61979;53.536;8.082;2022-07-24T00:12:50;102127.22;;;15.04;83.10
73681;BME280;61979;53.536;8.082;2022-07-24T00:13:51;102123.78;;;15.02;83.71
73681;BME280;61979;53.536;8.082;2022-07-24T00:14:51;102122.09;;;15.04;83.49
73681;BME280;61979;53.536;8.082;2022-07-24T00:15:52;102126.38;;;15.02;84.20
73681;BME280;61979;53.536;8.082;2022-07-24T00:16:52;102122.09;;;15.01;84.02
73681;BME280;61979;53.536;8.082;2022-07-24T00:17:52;102131.50;;;15.02;83.95
73681;BME280;61979;53.536;8.082;2022-07-24T00:18:53;102128.06;;;15.06;83.27
73681;BME280;61979;53.536;8.082;2022-07-24T00:19:53;102127.97;;;15.12;82.76
73681;BME280;61979;53.536;8.082;2022-07-24T00:20:53;102126.25;;;15.13;83.49
73681;BME280;61979;53.536;8.082;2022-07-24T00:21:54;102128.78;;;15.16;82.15
73681;BME280;61979;53.536;8.082;2022-07-24T00:22:55;102129.66;;;15.16;83.32
73681;BME280;61979;53.536;8.082;2022-07-24T00:23:55;102133.91;;;15.19;83.03
73681;BME280;61979;53.536;8.082;2022-07-24T00:24:56;102125.28;;;15.24;82.93
73681;BME280;61979;53.536;8.082;2022-07-24T00:25:56;102127.00;;;15.24;82.73
73681;BME280;61979;53.536;8.082;2022-07-24T00:26:57;102126.06;;;15.29;82.61
73681;BME280;61979;53.536;8.082;2022-07-24T00:27:57;102132.13;;;15.27;82.23
73681;BME280;61979;53.536;8.082;2022-07-24T00:28:57;102128.78;;;15.17;83.19
73681;BME280;61979;53.536;8.082;2022-07-24T00:29:58;102122.81;;;15.15;83.35
73681;BME280;61979;53.536;8.082;2022-07-24T00:30:58;102119.44;;;15.10;83.31
73681;BME280;61979;53.536;8.082;2022-07-24T00:31:58;102115.13;;;15.12;83.11
73681;BME280;61979;53.536;8.082;2022-07-24T00:32:59;102119.44;;;15.10;83.17
73681;BME280;61979;53.536;8.082;2022-07-24T00:33:59;102112.59;;;15.09;82.79
73681;BME280;61979;53.536;8.082;2022-07-24T00:34:59;102118.59;;;15.10;82.66
73681;BME280;61979;53.536;8.082;2022-07-24T00:36:00;102115.16;;;15.11;82.34
73681;BME280;61979;53.536;8.082;2022-07-24T00:37:01;102116.88;;;15.10;82.53
73681;BME280;61979;53.536;8.082;2022-07-24T00:38:01;102117.78;;;15.03;82.80
73681;BME280;61979;53.536;8.082;2022-07-24T00:39:02;102117.78;;;15.03;82.57
73681;BME280;61979;53.536;8.082;2022-07-24T00:40:03;102116.09;;;15.02;81.84
73681;BME280;61979;53.536;8.082;2022-07-24T00:41:04;102109.25;;;15.03;82.06
73681;BME280;61979;53.536;8.082;2022-07-24T00:42:05;102110.97;;;15.02;81.76
73681;BME280;61979;53.536;8.082;2022-07-24T00:43:05;102109.25;;;15.01;82.03
73681;BME280;61979;53.536;8.082;2022-07-24T00:45:07;102105.81;;;15.04;81.34
73681;BME280;61979;53.536;8.082;2022-07-24T00:46:07;102101.56;;;15.01;81.38
73681;BME280;61979;53.536;8.082;2022-07-24T00:47:08;102110.09;;;15.03;81.22
73681;BME280;61979;53.536;8.082;2022-07-24T00:48:08;102110.97;;;15.02;81.54
73681;BME280;61979;53.536;8.082;2022-07-24T00:49:11;102105.81;;;15.05;81.04
73681;BME280;61979;53.536;8.082;2022-07-24T00:50:12;102104.94;;;15.06;80.77
73681;BME280;61979;53.536;8.082;2022-07-24T00:51:13;102104.94;;;15.05;80.41
73681;BME280;61979;53.536;8.082;2022-07-24T00:52:14;102097.28;;;15.00;81.10
73681;BME280;61979;53.536;8.082;2022-07-24T00:53:14;102094.72;;;15.02;81.07
73681;BME280;61979;53.536;8.082;2022-07-24T00:54:16;102108.44;;;15.01;80.73
73681;BME280;61979;53.536;8.082;2022-07-24T00:55:17;102105.91;;;14.96;81.29
73681;BME280;61979;53.536;8.082;2022-07-24T00:56:18;102105.88;;;14.99;80.51
73681;BME280;61979;53.536;8.082;2022-07-24T00:57:19;102098.13;;;15.02;80.36
73681;BME280;61979;53.536;8.082;2022-07-24T00:58:19;102102.38;;;15.03;80.61
73681;BME280;61979;53.536;8.082;2022-07-24T00:59:19;102105.88;;;14.99;80.62
73681;BME280;61979;53.536;8.082;2022-07-24T01:00:21;102095.66;;;14.93;80.66
73681;BME280;61979;53.536;8.082;2022-07-24T01:01:22;102103.38;;;14.92;80.91
73681;BME280;61979;53.536;8.082;2022-07-24T01:02:22;102103.34;;;14.93;81.28
73681;BME280;61979;53.536;8.082;2022-07-24T01:03:23;102102.53;;;14.91;80.94
73681;BME280;61979;53.536;8.082;2022-07-24T01:04:23;102102.47;;;14.94;80.03
73681;BME280;61979;53.536;8.082;2022-07-24T01:05:24;102111.06;;;14.93;81.16
73681;BME280;61979;53.536;8.082;2022-07-24T01:06:24;102105.97;;;14.90;80.74
73681;BME280;61979;53.536;8.082;2022-07-24T01:07:25;102104.25;;;14.89;81.35
73681;BME280;61979;53.536;8.082;2022-07-24T01:08:25;102105.91;;;14.93;80.41
73681;BME280;61979;53.536;8.082;2022-07-24T01:09:26;102105.09;;;14.91;80.63
73681;BME280;61979;53.536;8.082;2022-07-24T01:10:27;102104.25;;;14.89;80.43
73681;BME280;61979;53.536;8.082;2022-07-24T01:11:28;102109.41;;;14.86;80.98
73681;BME280;61979;53.536;8.082;2022-07-24T01:12:30;102100.03;;;14.84;81.21
73681;BME280;61979;53.536;8.082;2022-07-24T01:13:31;102103.41;;;14.89;80.58
73681;BME280;61979;53.536;8.082;2022-07-24T01:14:33;102100.78;;;14.93;79.46
73681;BME280;61979;53.536;8.082;2022-07-24T01:15:33;102094.81;;;14.91;80.66
73681;BME280;61979;53.536;8.082;2022-07-24T01:16:34;102094.88;;;14.85;80.80
73681;BME280;61979;53.536;8.082;2022-07-24T01:17:37;102091.47;;;14.82;80.62
73681;BME280;61979;53.536;8.082;2022-07-24T01:18:39;102089.81;;;14.76;81.31
73681;BME280;61979;53.536;8.082;2022-07-24T01:19:39;102095.78;;;14.81;81.03
73681;BME280;61979;53.536;8.082;2022-07-24T01:20:46;102091.47;;;14.82;80.77
73681;BME280;61979;53.536;8.082;2022-07-24T01:21:48;102088.09;;;14.80;81.23
73681;BME280;61979;53.536;8.082;2022-07-24T01:22:49;102084.69;;;14.79;80.92
73681;BME280;61979;53.536;8.082;2022-07-24T01:23:49;102085.56;;;14.75;81.18
73681;BME280;61979;53.536;8.082;2022-07-24T01:24:50;102095.88;;;14.72;81.39
73681;BME280;61979;53.536;8.082;2022-07-24T01:25:50;102089.03;;;14.71;81.50
73681;BME280;61979;53.536;8.082;2022-07-24T01:26:51;102089.00;;;14.74;81.09
73681;BME280;61979;53.536;8.082;2022-07-24T01:27:51;102087.31;;;14.72;81.36
73681;BME280;61979;53.536;8.082;2022-07-24T01:28:52;102084.69;;;14.79;81.14
73681;BME280;61979;53.536;8.082;2022-07-24T01:29:53;102086.38;;;14.79;80.88
73681;BME280;61979;53.536;8.082;2022-07-24T01:30:53;102089.81;;;14.78;81.39
73681;BME280;61979;53.536;8.082;2022-07-24T01:31:54;102082.13;;;14.79;81.42
73681;BME280;61979;53.536;8.082;2022-07-24T01:32:54;102090.66;;;14.78;81.78
73681;BME280;61979;53.536;8.082;2022-07-24T01:33:55;102076.94;;;14.82;80.99
73681;BME280;61979;53.536;8.082;2022-07-24T01:34:55;102077.81;;;14.80;81.45
73681;BME280;61979;53.536;8.082;2022-07-24T01:35:56;102077.88;;;14.75;81.80
73681;BME280;61979;53.536;8.082;2022-07-24T01:36:57;102075.28;;;14.75;82.05
73681;BME280;61979;53.536;8.082;2022-07-24T01:37:57;102076.22;;;14.68;82.33
73681;BME280;61979;53.536;8.082;2022-07-24T01:38:58;102080.44;;;14.75;81.62
73681;BME280;61979;53.536;8.082;2022-07-24T01:39:58;102087.25;;;14.76;81.89
73681;BME280;61979;53.536;8.082;2022-07-24T01:40:59;102073.59;;;14.74;81.82
73681;BME280;61979;53.536;8.082;2022-07-24T01:41:59;102077.03;;;14.73;81.70
73681;BME280;61979;53.536;8.082;2022-07-24T01:43:00;102077.03;;;14.73;82.03
73681;BME280;61979;53.536;8.082;2022-07-24T01:44:01;102076.16;;;14.73;81.86
73681;BME280;61979;53.536;8.082;2022-07-24T01:45:02;102073.59;;;14.74;81.85
73681;BME280;61979;53.536;8.082;2022-07-24T01:46:02;102077.06;;;14.70;82.19
73681;BME280;61979;53.536;8.082;2022-07-24T01:47:02;102074.44;;;14.76;81.79
73681;BME280;61979;53.536;8.082;2022-07-24T01:48:03;102077.81;;;14.80;81.92
73681;BME280;61979;53.536;8.082;2022-07-24T01:49:04;102076.06;;;14.82;81.31
73681;BME280;61979;53.536;8.082;2022-07-24T01:50:05;102074.38;;;14.81;81.35
73681;BME280;61979;53.536;8.082;2022-07-24T01:51:05;102077.81;;;14.81;81.41
73681;BME280;61979;53.536;8.082;2022-07-24T01:52:05;102080.38;;;14.83;81.63
73681;BME280;61979;53.536;8.082;2022-07-24T01:53:06;102078.69;;;14.80;81.78
73681;BME280;61979;53.536;8.082;2022-07-24T01:54:06;102077.81;;;14.78;80.86
73681;BME280;61979;53.536;8.082;2022-07-24T01:55:07;102086.34;;;14.82;81.40
73681;BME280;61979;53.536;8.082;2022-07-24T01:56:08;102082.94;;;14.81;81.81
73681;BME280;61979;53.536;8.082;2022-07-24T01:57:08;102090.66;;;14.78;81.78
73681;BME280;61979;53.536;8.082;2022-07-24T01:58:08;102082.97;;;14.78;81.76
73681;BME280;61979;53.536;8.082;2022-07-24T01:59:09;102089.81;;;14.78;81.85
73681;BME280;61979;53.536;8.082;2022-07-24T02:00:10;102082.13;;;14.76;81.71
73681;BME280;61979;53.536;8.082;2022-07-24T02:01:12;102089.00;;;14.74;82.25
73681;BME280;61979;53.536;8.082;2022-07-24T02:02:13;102083.03;;;14.72;81.86
73681;BME280;61979;53.536;8.082;2022-07-24T02:03:14;102080.44;;;14.75;82.15
73681;BME280;61979;53.536;8.082;2022-07-24T02:04:14;102081.22;;;14.82;81.89
73681;BME280;61979;53.536;8.082;2022-07-24T02:05:15;102077.81;;;14.78;81.72
73681;BME280;61979;53.536;8.082;2022-07-24T02:06:16;102080.44;;;14.75;81.44
73681;BME280;61979;53.536;8.082;2022-07-24T02:07:16;102080.44;;;14.75;81.45
73681;BME280;61979;53.536;8.082;2022-07-24T02:08:17;102077.91;;;14.69;81.76
73681;BME280;61979;53.536;8.082;2022-07-24T02:09:17;102077.91;;;14.71;81.77
73681;BME280;61979;53.536;8.082;2022-07-24T02:10:17;102086.44;;;14.73;81.56
73681;BME280;61979;53.536;8.082;2022-07-24T02:11:18;102076.22;;;14.68;82.04
73681;BME280;61979;53.536;8.082;2022-07-24T02:12:19;102077.09;;;14.67;81.65
73681;BME280;61979;53.536;8.082;2022-07-24T02:13:19;102082.25;;;14.64;82.03
73681;BME280;61979;53.536;8.082;2022-07-24T02:14:20;102076.28;;;14.61;82.19
73681;BME280;61979;53.536;8.082;2022-07-24T02:15:20;102079.69;;;14.63;82.06
73681;BME280;61979;53.536;8.082;2022-07-24T02:16:21;102087.38;;;14.64;81.84
73681;BME280;61979;53.536;8.082;2022-07-24T02:17:21;102082.16;;;14.73;81.48
73681;BME280;61979;53.536;8.082;2022-07-24T02:18:22;102086.44;;;14.73;81.23
73681;BME280;61979;53.536;8.082;2022-07-24T02:19:22;102086.47;;;14.68;81.64
73681;BME280;61979;53.536;8.082;2022-07-24T02:20:25;102088.25;;;14.60;81.85
73681;BME280;61979;53.536;8.082;2022-07-24T02:21:26;102090.88;;;14.56;82.14
73681;BME280;61979;53.536;8.082;2022-07-24T02:22:27;102089.09;;;14.64;81.99
73681;BME280;61979;53.536;8.082;2022-07-24T02:23:28;102085.69;;;14.60;81.74
73681;BME280;61979;53.536;8.082;2022-07-24T02:24:28;102076.38;;;14.53;81.91
73681;BME280;61979;53.536;8.082;2022-07-24T02:25:28;102080.59;;;14.57;82.15
73681;BME280;61979;53.536;8.082;2022-07-24T02:26:29;102085.72;;;14.57;81.93
73681;BME280;61979;53.536;8.082;2022-07-24T02:27:29;102084.09;;;14.50;82.13
73681;BME280;61979;53.536;8.082;2022-07-24T02:28:29;102080.59;;;14.57;81.75
73681;BME280;61979;53.536;8.082;2022-07-24T02:29:30;102080.66;;;14.51;82.07
73681;BME280;61979;53.536;8.082;2022-07-24T02:30:31;102078.06;;;14.54;82.10
73681;BME280;61979;53.536;8.082;2022-07-24T02:31:31;102075.50;;;14.54;81.98
73681;BME280;61979;53.536;8.082;2022-07-24T02:32:31;102073.81;;;14.50;82.05
73681;BME280;61979;53.536;8.082;2022-07-24T02:33:32;102072.94;;;14.53;82.07
73681;BME280;61979;53.536;8.082;2022-07-24T02:34:32;102069.56;;;14.48;82.47
73681;BME280;61979;53.536;8.082;2022-07-24T02:35:32;102073.81;;;14.53;82.06
73681;BME280;61979;53.536;8.082;2022-07-24T02:36:33;102070.34;;;14.56;81.76
73681;BME280;61979;53.536;8.082;2022-07-24T02:37:38;102070.34;;;14.59;81.15
73681;BME280;61979;53.536;8.082;2022-07-24T02:38:39;102070.31;;;14.60;81.49
73681;BME280;61979;53.536;8.082;2022-07-24T02:39:39;102066.13;;;14.52;82.37
73681;BME280;61979;53.536;8.082;2022-07-24T02:40:39;102068.72;;;14.49;82.87
73681;BME280;61979;53.536;8.082;2022-07-24T02:41:40;102074.72;;;14.46;82.26
73681;BME280;61979;53.536;8.082;2022-07-24T02:42:40;102066.19;;;14.44;82.64
73681;BME280;61979;53.536;8.082;2022-07-24T02:43:40;102067.03;;;14.46;82.13
73681;BME280;61979;53.536;8.082;2022-07-24T02:44:41;102071.28;;;14.49;82.33
73681;BME280;61979;53.536;8.082;2022-07-24T02:45:41;102067.00;;;14.49;81.83
73681;BME280;61979;53.536;8.082;2022-07-24T02:46:42;102071.28;;;14.47;81.69
73681;BME280;61979;53.536;8.082;2022-07-24T02:47:51;102067.81;;;14.51;81.52
73681;BME280;61979;53.536;8.082;2022-07-24T02:48:51;102070.38;;;14.53;81.80
73681;BME280;61979;53.536;8.082;2022-07-24T02:49:52;102075.47;;;14.57;81.35
73681;BME280;61979;53.536;8.082;2022-07-24T02:50:52;102068.66;;;14.56;81.55
73681;BME280;61979;53.536;8.082;2022-07-24T02:51:52;102066.13;;;14.53;81.60
73681;BME280;61979;53.536;8.082;2022-07-24T02:52:53;102065.28;;;14.48;82.14
73681;BME280;61979;53.536;8.082;2022-07-24T02:53:53;102063.59;;;14.49;81.67
73681;BME280;61979;53.536;8.082;2022-07-24T02:54:54;102068.66;;;14.55;81.34
73681;BME280;61979;53.536;8.082;2022-07-24T02:55:54;102058.44;;;14.50;82.02
73681;BME280;61979;53.536;8.082;2022-07-24T02:56:55;102056.69;;;14.52;81.62
73681;BME280;61979;53.536;8.082;2022-07-24T02:57:55;102066.06;;;14.58;81.43
73681;BME280;61979;53.536;8.082;2022-07-24T02:58:56;102058.34;;;14.59;81.16
73681;BME280;61979;53.536;8.082;2022-07-24T02:59:56;102067.81;;;14.54;80.89
73681;BME280;61979;53.536;8.082;2022-07-24T03:00:56;102066.91;;;14.60;81.42
73681;BME280;61979;53.536;8.082;2022-07-24T03:01:57;102068.59;;;14.59;81.10
73681;BME280;61979;53.536;8.082;2022-07-24T03:02:58;102061.78;;;14.58;81.40
73681;BME280;61979;53.536;8.082;2022-07-24T03:03:58;102061.81;;;14.55;81.67
73681;BME280;61979;53.536;8.082;2022-07-24T03:04:59;102060.16;;;14.48;81.97
73681;BME280;61979;53.536;8.082;2022-07-24T03:05:59;102059.28;;;14.49;81.63
73681;BME280;61979;53.536;8.082;2022-07-24T03:06:59;102062.75;;;14.45;82.28
73681;BME280;61979;53.536;8.082;2022-07-24T03:08:00;102060.13;;;14.53;81.89
73681;BME280;61979;53.536;8.082;2022-07-24T03:09:01;102060.06;;;14.57;81.70
73681;BME280;61979;53.536;8.082;2022-07-24T03:10:01;102055.81;;;14.55;81.81
73681;BME280;61979;53.536;8.082;2022-07-24T03:11:01;102055.00;;;14.51;82.17
73681;BME280;61979;53.536;8.082;2022-07-24T03:12:02;102058.38;;;14.56;81.73
73681;BME280;61979;53.536;8.082;2022-07-24T03:13:02;102052.34;;;14.60;80.92
73681;BME280;61979;53.536;8.082;2022-07-24T03:14:03;102053.19;;;14.62;80.71
73681;BME280;61979;53.536;8.082;2022-07-24T03:15:04;102054.84;;;14.65;80.53
73681;BME280;61979;53.536;8.082;2022-07-24T03:16:05;102051.50;;;14.61;81.48
73681;BME280;61979;53.536;8.082;2022-07-24T03:17:05;102051.47;;;14.64;80.62
73681;BME280;61979;53.536;8.082;2022-07-24T03:18:06;102055.72;;;14.67;80.88
73681;BME280;61979;53.536;8.082;2022-07-24T03:19:06;102051.41;;;14.67;81.01
73681;BME280;61979;53.536;8.082;2022-07-24T03:20:09;102054.81;;;14.72;80.68
73681;BME280;61979;53.536;8.082;2022-07-24T03:21:09;102054.03;;;14.64;81.37
73681;BME280;61979;53.536;8.082;2022-07-24T03:22:10;102054.03;;;14.64;80.87
73681;BME280;61979;53.536;8.082;2022-07-24T03:23:10;102048.06;;;14.62;81.37
73681;BME280;61979;53.536;8.082;2022-07-24T03:24:10;102048.13;;;14.56;81.86
73681;BME280;61979;53.536;8.082;2022-07-24T03:25:11;102045.53;;;14.56;82.10
73681;BME280;61979;53.536;8.082;2022-07-24T03:26:11;102048.13;;;14.56;82.25
73681;BME280;61979;53.536;8.082;2022-07-24T03:27:12;102047.25;;;14.59;81.97
73681;BME280;61979;53.536;8.082;2022-07-24T03:28:12;102043.03;;;14.50;82.32
73681;BME280;61979;53.536;8.082;2022-07-24T03:29:12;102049.03;;;14.48;82.47
73681;BME280;61979;53.536;8.082;2022-07-24T03:30:14;102047.28;;;14.51;82.42
73681;BME280;61979;53.536;8.082;2022-07-24T03:31:14;102047.28;;;14.53;82.38
73681;BME280;61979;53.536;8.082;2022-07-24T03:32:15;102046.38;;;14.58;81.40
73681;BME280;61979;53.536;8.082;2022-07-24T03:33:15;102048.94;;;14.57;81.78
73681;BME280;61979;53.536;8.082;2022-07-24T03:34:16;102041.25;;;14.58;81.13
73681;BME280;61979;53.536;8.082;2022-07-24T03:35:16;102042.06;;;14.60;81.42
73681;BME280;61979;53.536;8.082;2022-07-24T03:36:16;102037.75;;;14.65;81.23
73681;BME280;61979;53.536;8.082;2022-07-24T03:37:17;102045.50;;;14.62;81.21
73681;BME280;61979;53.536;8.082;2022-07-24T03:38:17;102044.63;;;14.60;81.17
73681;BME280;61979;53.536;8.082;2022-07-24T03:39:17;102041.25;;;14.61;81.47
73681;BME280;61979;53.536;8.082;2022-07-24T03:40:18;102045.50;;;14.61;81.49
73681;BME280;61979;53.536;8.082;2022-07-24T03:41:18;102046.38;;;14.61;81.87
73681;BME280;61979;53.536;8.082;2022-07-24T03:42:19;102048.13;;;14.56;82.21
73681;BME280;61979;53.536;8.082;2022-07-24T03:43:19;102035.28;;;14.55;82.54
73681;BME280;61979;53.536;8.082;2022-07-24T03:44:19;102047.22;;;14.60;81.42
73681;BME280;61979;53.536;8.082;2022-07-24T03:45:20;102049.78;;;14.60;82.00
73681;BME280;61979;53.536;8.082;2022-07-24T03:46:20;102046.28;;;14.70;81.05
73681;BME280;61979;53.536;8.082;2022-07-24T03:47:21;102048.84;;;14.69;81.71
73681;BME280;61979;53.536;8.082;2022-07-24T03:48:21;102042.84;;;14.71;81.71
73681;BME280;61979;53.536;8.082;2022-07-24T03:49:21;102039.41;;;14.72;81.47
73681;BME280;61979;53.536;8.082;2022-07-24T03:50:22;102053.09;;;14.71;81.21
73681;BME280;61979;53.536;8.082;2022-07-24T03:51:22;102041.19;;;14.64;81.75
73681;BME280;61979;53.536;8.082;2022-07-24T03:52:22;102047.16;;;14.68;81.71
73681;BME280;61979;53.536;8.082;2022-07-24T03:53:23;102048.84;;;14.69;81.64
73681;BME280;61979;53.536;8.082;2022-07-24T03:54:23;102043.72;;;14.69;81.42
73681;BME280;61979;53.536;8.082;2022-07-24T03:55:23;102051.38;;;14.73;80.95
73681;BME280;61979;53.536;8.082;2022-07-24T03:56:24;102055.69;;;14.71;81.43
73681;BME280;61979;53.536;8.082;2022-07-24T03:57:24;102047.94;;;14.74;81.59
73681;BME280;61979;53.536;8.082;2022-07-24T03:58:24;102050.50;;;14.76;81.26
73681;BME280;61979;53.536;8.082;2022-07-24T03:59:25;102050.44;;;14.77;81.42
73681;BME280;61979;53.536;8.082;2022-07-24T04:00:25;102043.56;;;14.82;81.16
73681;BME280;61979;53.536;8.082;2022-07-24T04:01:25;102046.16;;;14.81;81.47
73681;BME280;61979;53.536;8.082;2022-07-24T04:02:26;102047.84;;;14.83;81.25
73681;BME280;61979;53.536;8.082;2022-07-24T04:03:26;102050.41;;;14.82;81.26
73681;BME280;61979;53.536;8.082;2022-07-24T04:04:27;102045.28;;;14.82;81.45
73681;BME280;61979;53.536;8.082;2022-07-24T04:05:27;102038.44;;;14.82;81.35
73681;BME280;61979;53.536;8.082;2022-07-24T04:06:27;102040.13;;;14.83;81.51
73681;BME280;61979;53.536;8.082;2022-07-24T04:07:28;102047.00;;;14.81;81.50
73681;BME280;61979;53.536;8.082;2022-07-24T04:08:28;102040.19;;;14.80;81.64
73681;BME280;61979;53.536;8.082;2022-07-24T04:09:28;102040.13;;;14.85;81.53
73681;BME280;61979;53.536;8.082;2022-07-24T04:10:29;102044.34;;;14.90;81.38
73681;BME280;61979;53.536;8.082;2022-07-24T04:11:29;102040.91;;;14.91;81.31
73681;BME280;61979;53.536;8.082;2022-07-24T04:12:33;102040.84;;;14.94;81.24
73681;BME280;61979;53.536;8.082;2022-07-24T04:13:34;102036.53;;;14.98;81.22
73681;BME280;61979;53.536;8.082;2022-07-24T04:14:34;102046.75;;;15.04;80.92
73681;BME280;61979;53.536;8.082;2022-07-24T04:15:35;102040.75;;;15.03;81.01
73681;BME280;61979;53.536;8.082;2022-07-24T04:16:35;102038.16;;;15.06;81.13
73681;BME280;61979;53.536;8.082;2022-07-24T04:17:40;102039.00;;;15.08;81.28
73681;BME280;61979;53.536;8.082;2022-07-24T04:18:41;102033.91;;;15.05;80.76
73681;BME280;61979;53.536;8.082;2022-07-24T04:19:41;102033.84;;;15.08;80.81
73681;BME280;61979;53.536;8.082;2022-07-24T04:20:41;102029.59;;;15.06;81.32
73681;BME280;61979;53.536;8.082;2022-07-24T04:21:42;102026.97;;;15.10;80.88
73681;BME280;61979;53.536;8.082;2022-07-24T04:22:42;102029.41;;;15.22;80.20
73681;BME280;61979;53.536;8.082;2022-07-24T04:23:43;102026.00;;;15.22;80.41
73681;BME280;61979;53.536;8.082;2022-07-24T04:24:43;102028.50;;;15.26;80.37
73681;BME280;61979;53.536;8.082;2022-07-24T04:25:43;102033.63;;;15.26;80.52
73681;BME280;61979;53.536;8.082;2022-07-24T04:26:45;102029.31;;;15.30;80.21
73681;BME280;61979;53.536;8.082;2022-07-24T04:27:45;102029.28;;;15.34;79.92
73681;BME280;61979;53.536;8.082;2022-07-24T04:28:47;102021.53;;;15.37;79.87
73681;BME280;61979;53.536;8.082;2022-07-24T04:29:47;102016.38;;;15.39;80.13
73681;BME280;61979;53.536;8.082;2022-07-24T04:30:47;102017.25;;;15.36;80.57
73681;BME280;61979;53.536;8.082;2022-07-24T04:31:48;102019.75;;;15.44;79.67
73681;BME280;61979;53.536;8.082;2022-07-24T04:32:48;102014.56;;;15.47;80.41
73681;BME280;61979;53.536;8.082;2022-07-24T04:33:49;102011.94;;;15.50;79.64
73681;BME280;61979;53.536;8.082;2022-07-24T04:34:49;102012.84;;;15.47;79.88
73681;BME280;61979;53.536;8.082;2022-07-24T04:35:49;102011.91;;;15.53;79.88
73681;BME280;61979;53.536;8.082;2022-07-24T04:36:50;102012.78;;;15.50;80.09
73681;BME280;61979;53.536;8.082;2022-07-24T04:37:50;102016.19;;;15.52;79.41
73681;BME280;61979;53.536;8.082;2022-07-24T04:38:50;102003.31;;;15.55;79.26
73681;BME280;61979;53.536;8.082;2022-07-24T04:39:51;102010.16;;;15.55;79.76
73681;BME280;61979;53.536;8.082;2022-07-24T04:40:51;102005.75;;;15.64;79.60
73681;BME280;61979;53.536;8.082;2022-07-24T04:41:52;102003.13;;;15.69;79.49
73681;BME280;61979;53.536;8.082;2022-07-24T04:42:52;101997.84;;;15.75;79.59
73681;BME280;61979;53.536;8.082;2022-07-24T04:43:52;102003.84;;;15.77;79.29
73681;BME280;61979;53.536;8.082;2022-07-24T04:44:53;102000.41;;;15.76;79.54
73681;BME280;61979;53.536;8.082;2022-07-24T04:45:53;102002.19;;;15.71;79.65
73681;BME280;61979;53.536;8.082;2022-07-24T04:46:54;102002.91;;;15.81;79.22
73681;BME280;61979;53.536;8.082;2022-07-24T04:47:54;101991.81;;;15.77;79.55
73681;BME280;61979;53.536;8.082;2022-07-24T04:48:54;102000.41;;;15.76;79.45
73681;BME280;61979;53.536;8.082;2022-07-24T04:49:55;101995.13;;;15.87;79.15
73681;BME280;61979;53.536;8.082;2022-07-24T04:50:55;102000.22;;;15.88;79.08
73681;BME280;61979;53.536;8.082;2022-07-24T04:51:55;101997.78;;;15.81;79.78
73681;BME280;61979;53.536;8.082;2022-07-24T04:52:56;101992.56;;;15.84;79.44
73681;BME280;61979;53.536;8.082;2022-07-24T04:53:56;102005.34;;;15.88;78.91
73681;BME280;61979;53.536;8.082;2022-07-24T04:54:57;102000.28;;;15.85;79.04
73681;BME280;61979;53.536;8.082;2022-07-24T04:55:58;102000.28;;;15.85;79.25
73681;BME280;61979;53.536;8.082;2022-07-24T04:56:58;102005.28;;;15.94;78.99
73681;BME280;61979;53.536;8.082;2022-07-24T04:57:59;101996.66;;;15.98;79.21
73681;BME280;61979;53.536;8.082;2022-07-24T04:58:59;102001.78;;;15.98;79.06
73681;BME280;61979;53.536;8.082;2022-07-24T05:00:04;102002.53;;;16.05;78.39
73681;BME280;61979;53.536;8.082;2022-07-24T05:01:06;102002.63;;;16.00;79.00
73681;BME280;61979;53.536;8.082;2022-07-24T05:02:07;102003.50;;;15.96;79.17
73681;BME280;61979;53.536;8.082;2022-07-24T05:03:07;102000.84;;;16.02;78.94
73681;BME280;61979;53.536;8.082;2022-07-24T05:04:07;102001.72;;;16.01;78.76
73681;BME280;61979;53.536;8.082;2022-07-24T05:05:08;101994.84;;;16.02;78.89
73681;BME280;61979;53.536;8.082;2022-07-24T05:06:08;101995.78;;;15.99;79.12
73681;BME280;61979;53.536;8.082;2022-07-24T05:07:09;101992.34;;;15.99;79.54
73681;BME280;61979;53.536;8.082;2022-07-24T05:08:09;102001.69;;;16.04;79.41
73681;BME280;61979;53.536;8.082;2022-07-24T05:09:09;101992.19;;;16.08;78.97
73681;BME280;61979;53.536;8.082;2022-07-24T05:10:10;101995.63;;;16.08;78.81
73681;BME280;61979;53.536;8.082;2022-07-24T05:11:10;101998.06;;;16.14;78.51
73681;BME280;61979;53.536;8.082;2022-07-24T05:12:11;101998.06;;;16.14;78.47
73681;BME280;61979;53.536;8.082;2022-07-24T05:13:11;101999.72;;;16.18;78.19
73681;BME280;61979;53.536;8.082;2022-07-24T05:14:11;101992.91;;;16.17;78.70
73681;BME280;61979;53.536;8.082;2022-07-24T05:15:12;101998.78;;;16.23;78.57
73681;BME280;61979;53.536;8.082;2022-07-24T05:16:12;101999.41;;;16.36;78.41
73681;BME280;61979;53.536;8.082;2022-07-24T05:17:12;101997.53;;;16.47;77.53
73681;BME280;61979;53.536;8.082;2022-07-24T05:18:13;102000.91;;;16.50;77.19